Margrethe Maersk — OWYZ2 — position and weather

sailwx.info

Track history (hours):
 
Tides and Currents Weather Stations Pressure Air Temp Water Temp Dewpoint Dewpoint Depression Visibility Wind Speed Wind Dir Waves Ship Positions

Margrethe Maersk

Last reported at 2017-Oct-18 02:53 UTC. Time now 2017-Oct-18 20:22 UTC.
Position N 36°12' E 015°27'.

Length 399 m; draft 15.1 m.

Type: Ship (hazmat cat A). MMSI: 219629000.

Date/timePositionNaut miles runAvg speedWind from/ knotsBaromVisibWave heightAir tempDewpointWater temp
2017-Oct-18 02:53N 36°12' E 015°27'821.9
2017-Oct-18 02:30N 36°15' E 015°17'1122.1
2017-Oct-18 02:00N 36°18' E 015°04'1122.3
2017-Oct-18 01:30N 36°22' E 014°51'1122.5
2017-Oct-18 01:00N 36°25' E 014°38'1122.7
2017-Oct-18 00:30N 36°29' E 014°25'1122.8
2017-Oct-18 00:00N 36°32' E 014°11'1122.4
2017-Oct-17 23:30N 36°36' E 013°58'1122.3
2017-Oct-17 23:00N 36°39' E 013°45'1122.3
2017-Oct-17 22:30N 36°42' E 013°32'1122.0
2017-Oct-17 22:00N 36°45' E 013°18'1122.2
2017-Oct-17 21:30N 36°49' E 013°05'1121.9
2017-Oct-17 21:00N 36°52' E 012°52'1122.0
2017-Oct-17 20:30N 36°56' E 012°39'1121.9
2017-Oct-17 20:00N 36°59' E 012°26'1121.6
2017-Oct-17 19:30N 37°02' E 012°13'4721.6
2017-Oct-17 17:19N 37°18' E 011°17'821.0
2017-Oct-17 16:57N 37°22' E 011°09'1120.9
2017-Oct-17 16:26N 37°25' E 010°56'921.0
2017-Oct-17 16:00N 37°27' E 010°45'1521.1
2017-Oct-17 15:19N 37°31' E 010°27'1021.4
2017-Oct-17 14:51N 37°34' E 010°15'821.8
2017-Oct-17 14:30N 37°35' E 010°06'2421.8
2017-Oct-17 13:24N 37°36' E 009°35'1621.5
2017-Oct-17 12:38N 37°36' E 009°15'321.5
2017-Oct-17 12:29N 37°36' E 009°11'24621.6
2017-Oct-17 01:04N 37°05' E 004°03'422.0
2017-Oct-17 00:53N 37°05' E 003°58'1922.0
2017-Oct-17 00:00N 37°01' E 003°34'1221.7
2017-Oct-16 23:27N 36°60' E 003°20'5821.5
2017-Oct-16 20:45N 36°51' E 002°08'521.0
2017-Oct-16 20:30N 36°50' E 002°02'1121.3
2017-Oct-16 19:58N 36°48' E 001°48'1020.4
2017-Oct-16 19:28N 36°47' E 001°35'1021.3
2017-Oct-16 19:00N 36°45' E 001°23'1121.2
2017-Oct-16 18:30N 36°44' E 001°10'29220.9
2017-Oct-16 04:33N 36°03' W 004°49'121.2
2017-Oct-16 04:30N 36°03' W 004°50'1121.4
2017-Oct-16 04:00N 36°01' W 005°03'1021.0
2017-Oct-16 03:30N 35°60' W 005°16'1020.5
2017-Oct-16 03:00N 35°57' W 005°28'1220.8
2017-Oct-16 02:27N 35°55' W 005°42'921.1
2017-Oct-16 02:00N 35°54' W 005°54'1020.6
2017-Oct-16 01:30N 35°53' W 006°07'1020.3
2017-Oct-16 01:00N 35°53' W 006°19'1019.4
2017-Oct-16 00:30N 35°54' W 006°31'2118.5
2017-Oct-15 23:23N 35°59' W 006°56'819.1
2017-Oct-15 22:59N 36°01' W 007°05'1019.9
2017-Oct-15 22:30N 36°04' W 007°16'1120.0
2017-Oct-15 21:58N 36°07' W 007°29'919.9
2017-Oct-15 21:30N 36°10' W 007°40'1020.1
2017-Oct-15 21:00N 36°13' W 007°52'1520.2
2017-Oct-15 20:15N 36°17' W 008°10'1420.4
2017-Oct-15 19:35N 36°21' W 008°26'220.1
2017-Oct-15 19:30N 36°22' W 008°28'1020.3
2017-Oct-15 19:00N 36°25' W 008°40'1020.7
2017-Oct-15 18:30N 36°28' W 008°52'1221.7
2017-Oct-15 17:56N 36°32' W 009°07'920.6
2017-Oct-15 17:30N 36°34' W 009°17'1121.2
2017-Oct-15 17:00N 36°42' W 009°27'1020.1
2017-Oct-15 16:30N 36°50' W 009°34'1020.5
2017-Oct-15 16:00N 37°00' W 009°37'1020.0
2017-Oct-15 15:30N 37°10' W 009°40'1019.7
2017-Oct-15 15:00N 37°19' W 009°43'1919.1
2017-Oct-15 14:00N 37°38' W 009°48'1019.7
2017-Oct-15 13:30N 37°48' W 009°50'1019.8
2017-Oct-15 13:00N 37°57' W 009°53'1020.4
2017-Oct-15 12:30N 38°07' W 009°56'1020.6
2017-Oct-15 12:00N 38°17' W 009°59'1020.6
2017-Oct-15 11:30N 38°27' W 010°02'1020.4
2017-Oct-15 11:00N 38°37' W 010°05'1020.2
2017-Oct-15 10:30N 38°47' W 010°06'1019.9
2017-Oct-15 10:00N 38°57' W 010°06'1020.3
2017-Oct-15 09:30N 39°07' W 010°06'1020.7
2017-Oct-15 09:00N 39°18' W 010°06'1020.7
2017-Oct-15 08:30N 39°28' W 010°07'1020.1
2017-Oct-15 08:00N 39°38' W 010°07'1019.9
2017-Oct-15 07:30N 39°48' W 010°07'1520.5
2017-Oct-15 06:46N 40°03' W 010°07'620.2
2017-Oct-15 06:29N 40°09' W 010°07'1020.1
2017-Oct-15 06:00N 40°19' W 010°07'1320.0
2017-Oct-15 05:21N 40°32' W 010°07'21919.7
2017-Oct-14 18:15N 44°09' W 009°29'520.3
2017-Oct-14 18:00N 44°13' W 009°26'24720.2
2017-Oct-14 05:45N 47°51' W 006°40'5420.8
2017-Oct-14 03:09N 48°39' W 006°02'820.8
2017-Oct-14 02:47N 48°46' W 005°56'620.5
2017-Oct-14 02:28N 48°51' W 005°51'919.7
2017-Oct-14 01:59N 48°58' W 005°41'1219.9
2017-Oct-14 01:23N 49°04' W 005°25'819.8
2017-Oct-14 01:00N 49°08' W 005°15'1019.8
2017-Oct-14 00:29N 49°13' W 005°02'1019.6
2017-Oct-13 23:59N 49°18' W 004°49'1019.5
2017-Oct-13 23:29N 49°23' W 004°36'919.6
2017-Oct-13 23:00N 49°28' W 004°23'1019.4
2017-Oct-13 22:30N 49°33' W 004°11'1019.8
2017-Oct-13 22:00N 49°38' W 003°58'1020.1
2017-Oct-13 21:30N 49°43' W 003°44'1020.6
2017-Oct-13 21:00N 49°47' W 003°29'1121.2
2017-Oct-13 20:30N 49°52' W 003°15'1121.6
2017-Oct-13 20:00N 49°58' W 003°00'1122.0
2017-Oct-13 19:30N 50°02' W 002°44'1122.2
2017-Oct-13 19:00N 50°05' W 002°28'1122.2
2017-Oct-13 18:30N 50°08' W 002°12'1121.9
2017-Oct-13 18:00N 50°11' W 001°55'1121.4
2017-Oct-13 17:30N 50°14' W 001°39'1020.8
2017-Oct-13 17:00N 50°16' W 001°23'1020.3
2017-Oct-13 16:30N 50°19' W 001°08'1019.3
2017-Oct-13 16:00N 50°22' W 000°53'918.1
2017-Oct-13 15:30N 50°24' W 000°39'918.0
2017-Oct-13 15:00N 50°26' W 000°26'918.2
2017-Oct-13 14:30N 50°29' W 000°12'918.0
2017-Oct-13 14:00N 50°31' E 000°01'917.8
2017-Oct-13 13:30N 50°34' E 000°15'917.9
2017-Oct-13 13:00N 50°36' E 000°29'918.2
2017-Oct-13 12:31N 50°40' E 000°41'918.5
2017-Oct-13 12:00N 50°46' E 000°53'918.4
2017-Oct-13 11:30N 50°52' E 001°04'918.1
2017-Oct-13 11:00N 50°58' E 001°15'917.9
2017-Oct-13 10:30N 51°03' E 001°26'918.1
2017-Oct-13 10:00N 51°09' E 001°37'917.1
2017-Oct-13 09:30N 51°16' E 001°46'917.2
2017-Oct-13 09:00N 51°24' E 001°51'815.9
2017-Oct-13 08:30N 51°31' E 001°51'817.0
2017-Oct-13 08:00N 51°39' E 001°45'713.7
2017-Oct-13 07:30N 51°46' E 001°44'3 5.1
2017-Oct-13 07:00N 51°49' E 001°43'3 6.0
2017-Oct-13 06:30N 51°50' E 001°40'3 6.6
2017-Oct-13 06:00N 51°52' E 001°35'4 7.7
2017-Oct-13 05:30N 51°56' E 001°33'713.0
2017-Oct-13 05:01N 51°56' E 001°23'3 5.2
2017-Oct-13 04:30N 51°57' E 001°19'0 0.3
2017-Oct-13 03:59N 51°57' E 001°19'0 0.0
2017-Oct-13 03:29N 51°57' E 001°19'0 0.0
2017-Oct-13 02:59N 51°57' E 001°19'0 0.0
2017-Oct-13 02:29N 51°57' E 001°19'0 0.0
2017-Oct-13 01:59N 51°57' E 001°19'0 0.0
2017-Oct-13 01:29N 51°57' E 001°19'0 0.0
2017-Oct-13 00:59N 51°57' E 001°19'0 0.0
2017-Oct-13 00:29N 51°57' E 001°19'0 0.0
2017-Oct-12 23:59N 51°57' E 001°19'0 0.0
2017-Oct-12 23:29N 51°57' E 001°19'0 0.0
2017-Oct-12 22:59N 51°57' E 001°19'0 0.0
2017-Oct-12 22:29N 51°57' E 001°19'0 0.0
2017-Oct-12 21:59N 51°57' E 001°19'0 0.0
2017-Oct-12 21:29N 51°57' E 001°19'0 0.0
2017-Oct-12 20:59N 51°57' E 001°19'0 0.0
2017-Oct-12 20:29N 51°57' E 001°19'0 0.0
2017-Oct-12 19:59N 51°57' E 001°19'0 0.0
2017-Oct-12 19:29N 51°57' E 001°19'0 0.0
2017-Oct-12 18:59N 51°57' E 001°19'0 0.0
2017-Oct-12 18:29N 51°57' E 001°19'0 0.0
2017-Oct-12 17:59N 51°57' E 001°19'0 0.0
2017-Oct-12 17:29N 51°57' E 001°19'0 0.0
2017-Oct-12 16:59N 51°57' E 001°19'0 0.0
2017-Oct-12 16:29N 51°57' E 001°19'0 0.0
2017-Oct-12 15:59N 51°57' E 001°19'0 0.0
2017-Oct-12 15:29N 51°57' E 001°19'0 0.0
2017-Oct-12 14:59N 51°57' E 001°19'0 0.0
2017-Oct-12 14:29N 51°57' E 001°19'0 0.0
2017-Oct-12 13:59N 51°57' E 001°19'0 0.0
2017-Oct-12 13:29N 51°57' E 001°19'0 0.0
2017-Oct-12 12:59N 51°57' E 001°19'0 0.0
2017-Oct-12 12:29N 51°57' E 001°19'0 0.0
2017-Oct-12 11:59N 51°57' E 001°19'0 0.0
2017-Oct-12 11:29N 51°57' E 001°19'0 0.0
2017-Oct-12 10:59N 51°57' E 001°19'0 0.0
2017-Oct-12 10:29N 51°57' E 001°19'0 0.0
2017-Oct-12 09:59N 51°57' E 001°19'0 0.0
2017-Oct-12 09:29N 51°57' E 001°19'0 0.0
2017-Oct-12 08:59N 51°57' E 001°19'0 0.0
2017-Oct-12 08:29N 51°57' E 001°19'0 0.0
2017-Oct-12 07:59N 51°57' E 001°19'0 0.0
2017-Oct-12 07:29N 51°57' E 001°19'0 0.0
2017-Oct-12 06:59N 51°57' E 001°19'0 0.0
2017-Oct-12 06:29N 51°57' E 001°19'0 0.0
2017-Oct-12 05:59N 51°57' E 001°19'0 0.0
2017-Oct-12 05:29N 51°57' E 001°19'0 0.0
2017-Oct-12 04:59N 51°57' E 001°19'0 0.0
2017-Oct-12 04:29N 51°57' E 001°19'0 0.0
2017-Oct-12 03:59N 51°57' E 001°19'0 0.0
2017-Oct-12 03:29N 51°57' E 001°19'0 0.0
2017-Oct-12 02:59N 51°57' E 001°19'0 0.0
2017-Oct-12 02:29N 51°57' E 001°19'0 0.0
2017-Oct-12 01:59N 51°57' E 001°19'0 0.0
2017-Oct-12 01:29N 51°57' E 001°19'0 0.0
2017-Oct-12 00:59N 51°57' E 001°19'0 0.0
2017-Oct-12 00:29N 51°57' E 001°19'0 0.0
2017-Oct-11 23:59N 51°57' E 001°19'0 0.0
2017-Oct-11 23:29N 51°57' E 001°19'0 0.0
2017-Oct-11 22:59N 51°57' E 001°19'0 0.0
2017-Oct-11 22:29N 51°57' E 001°19'0 0.0
2017-Oct-11 21:59N 51°57' E 001°19'0 0.0
2017-Oct-11 21:29N 51°57' E 001°19'0 0.0
2017-Oct-11 20:59N 51°57' E 001°19'0 0.0
2017-Oct-11 20:29N 51°57' E 001°19'0 0.0
2017-Oct-11 19:59N 51°57' E 001°19'0 0.0
2017-Oct-11 19:28N 51°57' E 001°19'0 0.0
2017-Oct-11 18:58N 51°57' E 001°19'0 0.0
2017-Oct-11 18:28N 51°57' E 001°19'0 0.0
2017-Oct-11 17:58N 51°57' E 001°19'0 0.0
2017-Oct-11 17:28N 51°57' E 001°19'0 0.0
2017-Oct-11 16:58N 51°57' E 001°19'103 5.3
2017-Oct-10 21:33N 52°49' E 003°45'1211.9
2017-Oct-10 20:34N 52°58' E 003°58'111.5
2017-Oct-10 20:30N 52°58' E 003°59'611.9
2017-Oct-10 20:00N 53°02' E 004°07'611.9
2017-Oct-10 19:30N 53°06' E 004°14'5 9.9
2017-Oct-10 19:00N 53°09' E 004°21'4 8.8
2017-Oct-10 18:30N 53°12' E 004°26'5 9.0
2017-Oct-10 17:59N 53°16' E 004°29'5 9.9
2017-Oct-10 17:29N 53°21' E 004°32'510.7
2017-Oct-10 17:01N 53°26' E 004°34'510.8
2017-Oct-10 16:31N 53°29' E 004°41'611.7
2017-Oct-10 16:00N 53°32' E 004°50'611.7
2017-Oct-10 15:31N 53°34' E 004°59'611.6
2017-Oct-10 15:01N 53°36' E 005°08'1111.3
2017-Oct-10 14:01N 53°40' E 005°26'611.1
2017-Oct-10 13:29N 53°41' E 005°36'65 9.2
2017-Oct-10 06:30N 53°58' E 007°21'1012.2
2017-Oct-10 05:43N 54°00' E 007°37'313.0
2017-Oct-10 05:30N 53°58' E 007°40'713.3
2017-Oct-10 05:00N 53°53' E 007°48'714.4
2017-Oct-10 04:30N 53°51' E 007°59'714.1
2017-Oct-10 04:00N 53°47' E 008°09'713.8
2017-Oct-10 03:31N 53°43' E 008°18'612.4
2017-Oct-10 03:01N 53°38' E 008°26'4 7.9
2017-Oct-10 02:31N 53°36' E 008°31'0 0.4
2017-Oct-10 02:00N 53°36' E 008°31'0 0.0
2017-Oct-10 01:30N 53°36' E 008°31'0 0.0
2017-Oct-10 01:00N 53°36' E 008°31'0 0.0
2017-Oct-10 00:30N 53°36' E 008°31'0 0.0
2017-Oct-10 00:00N 53°36' E 008°31'0 0.0
2017-Oct-09 23:30N 53°36' E 008°31'0 0.0
2017-Oct-09 23:00N 53°36' E 008°31'0 0.0
2017-Oct-09 22:30N 53°36' E 008°31'0 0.0
2017-Oct-09 22:00N 53°36' E 008°31'0 0.0
2017-Oct-09 21:30N 53°36' E 008°31'0 0.0
2017-Oct-09 21:00N 53°36' E 008°31'0 0.0
2017-Oct-09 20:30N 53°36' E 008°31'0 0.0
2017-Oct-09 20:00N 53°36' E 008°31'0 0.0
2017-Oct-09 19:30N 53°36' E 008°31'0 0.0
2017-Oct-09 19:00N 53°36' E 008°31'0 0.0
2017-Oct-09 18:30N 53°36' E 008°31'0 0.0
2017-Oct-09 18:00N 53°36' E 008°31'0 0.0
2017-Oct-09 17:30N 53°36' E 008°31'0 0.0
2017-Oct-09 17:00N 53°36' E 008°31'0 0.0
2017-Oct-09 16:30N 53°36' E 008°31'0 0.0
2017-Oct-09 16:00N 53°36' E 008°31'0 0.0
2017-Oct-09 15:30N 53°36' E 008°31'0 0.0
2017-Oct-09 15:00N 53°36' E 008°31'0 0.0
2017-Oct-09 14:30N 53°36' E 008°31'0 0.0
2017-Oct-09 13:57N 53°36' E 008°31'0 0.0
2017-Oct-09 13:30N 53°36' E 008°31'0 0.0
2017-Oct-09 13:00N 53°36' E 008°31'0 0.0
2017-Oct-09 12:30N 53°36' E 008°31'0 0.0
2017-Oct-09 12:00N 53°36' E 008°31'0 0.0
2017-Oct-09 11:30N 53°36' E 008°31'0 0.0
2017-Oct-09 11:00N 53°36' E 008°31'0 0.0
2017-Oct-09 10:30N 53°36' E 008°31'0 0.0
2017-Oct-09 10:00N 53°36' E 008°31'0 0.0
2017-Oct-09 09:27N 53°36' E 008°31'0 0.0
2017-Oct-09 09:00N 53°36' E 008°31'0 0.0
2017-Oct-09 08:30N 53°36' E 008°31'0 0.0
2017-Oct-09 08:00N 53°36' E 008°31'0 0.0
2017-Oct-09 07:30N 53°36' E 008°31'0 0.0
2017-Oct-09 07:00N 53°36' E 008°31'0 0.0
2017-Oct-09 06:30N 53°36' E 008°31'0 0.0
2017-Oct-09 06:00N 53°36' E 008°31'0 0.0
2017-Oct-09 05:30N 53°36' E 008°31'0 0.0
2017-Oct-09 05:00N 53°36' E 008°31'0 0.0
2017-Oct-09 04:30N 53°36' E 008°31'0 0.0
2017-Oct-09 04:00N 53°36' E 008°31'0 0.0
2017-Oct-09 03:30N 53°36' E 008°31'0 0.0
2017-Oct-09 03:00N 53°36' E 008°31'0 0.0
2017-Oct-09 02:30N 53°36' E 008°31'0 0.0
2017-Oct-09 02:00N 53°36' E 008°31'0 0.0
2017-Oct-09 01:30N 53°36' E 008°31'0 0.0
2017-Oct-09 01:00N 53°36' E 008°31'0 0.0
2017-Oct-09 00:30N 53°36' E 008°31'0 0.0
2017-Oct-09 00:00N 53°36' E 008°31'0 0.0
2017-Oct-08 23:30N 53°36' E 008°31'0 0.0
2017-Oct-08 23:00N 53°36' E 008°31'0 0.0
2017-Oct-08 22:30N 53°36' E 008°31'0 0.0
2017-Oct-08 22:00N 53°36' E 008°31'0 0.0
2017-Oct-08 21:30N 53°36' E 008°31'0 0.0
2017-Oct-08 21:00N 53°36' E 008°31'0 0.0
2017-Oct-08 20:30N 53°36' E 008°31'0 0.0
2017-Oct-08 20:00N 53°36' E 008°31'0 0.0
2017-Oct-08 19:30N 53°36' E 008°31'0 0.0
2017-Oct-08 19:00N 53°36' E 008°31'0 0.0
2017-Oct-08 18:30N 53°36' E 008°31'0 0.0
2017-Oct-08 18:00N 53°36' E 008°31'0 0.0
2017-Oct-08 17:30N 53°36' E 008°31'0 0.0
2017-Oct-08 17:00N 53°36' E 008°31'0 0.0
2017-Oct-08 16:30N 53°36' E 008°31'0 0.0
2017-Oct-08 16:00N 53°36' E 008°31'0 0.0
2017-Oct-08 15:30N 53°36' E 008°31'0 0.0
2017-Oct-08 15:00N 53°36' E 008°31'0 0.0
2017-Oct-08 14:30N 53°36' E 008°31'0 0.0
2017-Oct-08 14:00N 53°36' E 008°31'0 0.0
2017-Oct-08 13:30N 53°36' E 008°31'0 0.0
2017-Oct-08 13:00N 53°36' E 008°31'0 0.1
2017-Oct-08 12:30N 53°36' E 008°31'1 2.2
2017-Oct-08 12:00N 53°37' E 008°30'713.2
2017-Oct-08 11:30N 53°41' E 008°21'917.4
2017-Oct-08 11:00N 53°46' E 008°10'816.4
2017-Oct-08 10:30N 53°51' E 007°59'611.9
2017-Oct-08 10:00N 53°52' E 007°49'3 6.8
2017-Oct-08 09:30N 53°54' E 007°44'4 7.7
2017-Oct-08 09:00N 53°57' E 007°39'611.0
2017-Oct-08 08:30N 54°01' E 007°33'4 7.8
2017-Oct-08 08:00N 54°04' E 007°30'4 3.2
2017-Oct-08 06:50N 54°08' E 007°27'1 1.7
2017-Oct-08 06:25N 54°08' E 007°26'  
Track history (hours):
 
Tides and Currents Weather Stations Pressure Air Temp Water Temp Dewpoint Dewpoint Depression Visibility Wind Speed Wind Dir Waves Ship Positions

Margrethe Maersk

Last reported at 2017-Oct-18 02:53 UTC. Time now 2017-Oct-18 20:22 UTC.
Position N 36°12' E 015°27'.

Length 399 m; draft 15.1 m.

Type: Ship (hazmat cat A). MMSI: 219629000.

Date/timePositionNaut miles runAvg speedWind from/ knotsBaromVisibWave heightAir tempDewpointWater temp
2017-Oct-18 02:53N 36°12' E 015°27'821.9
2017-Oct-18 02:30N 36°15' E 015°17'1122.1
2017-Oct-18 02:00N 36°18' E 015°04'1122.3
2017-Oct-18 01:30N 36°22' E 014°51'1122.5
2017-Oct-18 01:00N 36°25' E 014°38'1122.7
2017-Oct-18 00:30N 36°29' E 014°25'1122.8
2017-Oct-18 00:00N 36°32' E 014°11'1122.4
2017-Oct-17 23:30N 36°36' E 013°58'1122.3
2017-Oct-17 23:00N 36°39' E 013°45'1122.3
2017-Oct-17 22:30N 36°42' E 013°32'1122.0
2017-Oct-17 22:00N 36°45' E 013°18'1122.2
2017-Oct-17 21:30N 36°49' E 013°05'1121.9
2017-Oct-17 21:00N 36°52' E 012°52'1122.0
2017-Oct-17 20:30N 36°56' E 012°39'1121.9
2017-Oct-17 20:00N 36°59' E 012°26'1121.6
2017-Oct-17 19:30N 37°02' E 012°13'4721.6
2017-Oct-17 17:19N 37°18' E 011°17'821.0
2017-Oct-17 16:57N 37°22' E 011°09'1120.9
2017-Oct-17 16:26N 37°25' E 010°56'921.0
2017-Oct-17 16:00N 37°27' E 010°45'1521.1
2017-Oct-17 15:19N 37°31' E 010°27'1021.4
2017-Oct-17 14:51N 37°34' E 010°15'821.8
2017-Oct-17 14:30N 37°35' E 010°06'2421.8
2017-Oct-17 13:24N 37°36' E 009°35'1621.5
2017-Oct-17 12:38N 37°36' E 009°15'321.5
2017-Oct-17 12:29N 37°36' E 009°11'24621.6
2017-Oct-17 01:04N 37°05' E 004°03'422.0
2017-Oct-17 00:53N 37°05' E 003°58'1922.0
2017-Oct-17 00:00N 37°01' E 003°34'1221.7
2017-Oct-16 23:27N 36°60' E 003°20'5821.5
2017-Oct-16 20:45N 36°51' E 002°08'521.0
2017-Oct-16 20:30N 36°50' E 002°02'1121.3
2017-Oct-16 19:58N 36°48' E 001°48'1020.4
2017-Oct-16 19:28N 36°47' E 001°35'1021.3
2017-Oct-16 19:00N 36°45' E 001°23'1121.2
2017-Oct-16 18:30N 36°44' E 001°10'29220.9
2017-Oct-16 04:33N 36°03' W 004°49'121.2
2017-Oct-16 04:30N 36°03' W 004°50'1121.4
2017-Oct-16 04:00N 36°01' W 005°03'1021.0
2017-Oct-16 03:30N 35°60' W 005°16'1020.5
2017-Oct-16 03:00N 35°57' W 005°28'1220.8
2017-Oct-16 02:27N 35°55' W 005°42'921.1
2017-Oct-16 02:00N 35°54' W 005°54'1020.6
2017-Oct-16 01:30N 35°53' W 006°07'1020.3
2017-Oct-16 01:00N 35°53' W 006°19'1019.4
2017-Oct-16 00:30N 35°54' W 006°31'2118.5
2017-Oct-15 23:23N 35°59' W 006°56'819.1
2017-Oct-15 22:59N 36°01' W 007°05'1019.9
2017-Oct-15 22:30N 36°04' W 007°16'1120.0
2017-Oct-15 21:58N 36°07' W 007°29'919.9
2017-Oct-15 21:30N 36°10' W 007°40'1020.1
2017-Oct-15 21:00N 36°13' W 007°52'1520.2
2017-Oct-15 20:15N 36°17' W 008°10'1420.4
2017-Oct-15 19:35N 36°21' W 008°26'220.1
2017-Oct-15 19:30N 36°22' W 008°28'1020.3
2017-Oct-15 19:00N 36°25' W 008°40'1020.7
2017-Oct-15 18:30N 36°28' W 008°52'1221.7
2017-Oct-15 17:56N 36°32' W 009°07'920.6
2017-Oct-15 17:30N 36°34' W 009°17'1121.2
2017-Oct-15 17:00N 36°42' W 009°27'1020.1
2017-Oct-15 16:30N 36°50' W 009°34'1020.5
2017-Oct-15 16:00N 37°00' W 009°37'1020.0
2017-Oct-15 15:30N 37°10' W 009°40'1019.7
2017-Oct-15 15:00N 37°19' W 009°43'1919.1
2017-Oct-15 14:00N 37°38' W 009°48'1019.7
2017-Oct-15 13:30N 37°48' W 009°50'1019.8
2017-Oct-15 13:00N 37°57' W 009°53'1020.4
2017-Oct-15 12:30N 38°07' W 009°56'1020.6
2017-Oct-15 12:00N 38°17' W 009°59'1020.6
2017-Oct-15 11:30N 38°27' W 010°02'1020.4
2017-Oct-15 11:00N 38°37' W 010°05'1020.2
2017-Oct-15 10:30N 38°47' W 010°06'1019.9
2017-Oct-15 10:00N 38°57' W 010°06'1020.3
2017-Oct-15 09:30N 39°07' W 010°06'1020.7
2017-Oct-15 09:00N 39°18' W 010°06'1020.7
2017-Oct-15 08:30N 39°28' W 010°07'1020.1
2017-Oct-15 08:00N 39°38' W 010°07'1019.9
2017-Oct-15 07:30N 39°48' W 010°07'1520.5
2017-Oct-15 06:46N 40°03' W 010°07'620.2
2017-Oct-15 06:29N 40°09' W 010°07'1020.1
2017-Oct-15 06:00N 40°19' W 010°07'1320.0
2017-Oct-15 05:21N 40°32' W 010°07'21919.7
2017-Oct-14 18:15N 44°09' W 009°29'520.3
2017-Oct-14 18:00N 44°13' W 009°26'24720.2
2017-Oct-14 05:45N 47°51' W 006°40'5420.8
2017-Oct-14 03:09N 48°39' W 006°02'820.8
2017-Oct-14 02:47N 48°46' W 005°56'620.5
2017-Oct-14 02:28N 48°51' W 005°51'919.7
2017-Oct-14 01:59N 48°58' W 005°41'1219.9
2017-Oct-14 01:23N 49°04' W 005°25'819.8
2017-Oct-14 01:00N 49°08' W 005°15'1019.8
2017-Oct-14 00:29N 49°13' W 005°02'1019.6
2017-Oct-13 23:59N 49°18' W 004°49'1019.5
2017-Oct-13 23:29N 49°23' W 004°36'919.6
2017-Oct-13 23:00N 49°28' W 004°23'1019.4
2017-Oct-13 22:30N 49°33' W 004°11'1019.8
2017-Oct-13 22:00N 49°38' W 003°58'1020.1
2017-Oct-13 21:30N 49°43' W 003°44'1020.6
2017-Oct-13 21:00N 49°47' W 003°29'1121.2
2017-Oct-13 20:30N 49°52' W 003°15'1121.6
2017-Oct-13 20:00N 49°58' W 003°00'1122.0
2017-Oct-13 19:30N 50°02' W 002°44'1122.2
2017-Oct-13 19:00N 50°05' W 002°28'1122.2
2017-Oct-13 18:30N 50°08' W 002°12'1121.9
2017-Oct-13 18:00N 50°11' W 001°55'1121.4
2017-Oct-13 17:30N 50°14' W 001°39'1020.8
2017-Oct-13 17:00N 50°16' W 001°23'1020.3
2017-Oct-13 16:30N 50°19' W 001°08'1019.3
2017-Oct-13 16:00N 50°22' W 000°53'918.1
2017-Oct-13 15:30N 50°24' W 000°39'918.0
2017-Oct-13 15:00N 50°26' W 000°26'918.2
2017-Oct-13 14:30N 50°29' W 000°12'918.0
2017-Oct-13 14:00N 50°31' E 000°01'917.8
2017-Oct-13 13:30N 50°34' E 000°15'917.9
2017-Oct-13 13:00N 50°36' E 000°29'918.2
2017-Oct-13 12:31N 50°40' E 000°41'918.5
2017-Oct-13 12:00N 50°46' E 000°53'918.4
2017-Oct-13 11:30N 50°52' E 001°04'918.1
2017-Oct-13 11:00N 50°58' E 001°15'917.9
2017-Oct-13 10:30N 51°03' E 001°26'918.1
2017-Oct-13 10:00N 51°09' E 001°37'917.1
2017-Oct-13 09:30N 51°16' E 001°46'917.2
2017-Oct-13 09:00N 51°24' E 001°51'815.9
2017-Oct-13 08:30N 51°31' E 001°51'817.0
2017-Oct-13 08:00N 51°39' E 001°45'713.7
2017-Oct-13 07:30N 51°46' E 001°44'3 5.1
2017-Oct-13 07:00N 51°49' E 001°43'3 6.0
2017-Oct-13 06:30N 51°50' E 001°40'3 6.6
2017-Oct-13 06:00N 51°52' E 001°35'4 7.7
2017-Oct-13 05:30N 51°56' E 001°33'713.0
2017-Oct-13 05:01N 51°56' E 001°23'3 5.2
2017-Oct-13 04:30N 51°57' E 001°19'0 0.3
2017-Oct-13 03:59N 51°57' E 001°19'0 0.0
2017-Oct-13 03:29N 51°57' E 001°19'0 0.0
2017-Oct-13 02:59N 51°57' E 001°19'0 0.0
2017-Oct-13 02:29N 51°57' E 001°19'0 0.0
2017-Oct-13 01:59N 51°57' E 001°19'0 0.0
2017-Oct-13 01:29N 51°57' E 001°19'0 0.0
2017-Oct-13 00:59N 51°57' E 001°19'0 0.0
2017-Oct-13 00:29N 51°57' E 001°19'0 0.0
2017-Oct-12 23:59N 51°57' E 001°19'0 0.0
2017-Oct-12 23:29N 51°57' E 001°19'0 0.0
2017-Oct-12 22:59N 51°57' E 001°19'0 0.0
2017-Oct-12 22:29N 51°57' E 001°19'0 0.0
2017-Oct-12 21:59N 51°57' E 001°19'0 0.0
2017-Oct-12 21:29N 51°57' E 001°19'0 0.0
2017-Oct-12 20:59N 51°57' E 001°19'0 0.0
2017-Oct-12 20:29N 51°57' E 001°19'0 0.0
2017-Oct-12 19:59N 51°57' E 001°19'0 0.0
2017-Oct-12 19:29N 51°57' E 001°19'0 0.0
2017-Oct-12 18:59N 51°57' E 001°19'0 0.0
2017-Oct-12 18:29N 51°57' E 001°19'0 0.0
2017-Oct-12 17:59N 51°57' E 001°19'0 0.0
2017-Oct-12 17:29N 51°57' E 001°19'0 0.0
2017-Oct-12 16:59N 51°57' E 001°19'0 0.0
2017-Oct-12 16:29N 51°57' E 001°19'0 0.0
2017-Oct-12 15:59N 51°57' E 001°19'0 0.0
2017-Oct-12 15:29N 51°57' E 001°19'0 0.0
2017-Oct-12 14:59N 51°57' E 001°19'0 0.0
2017-Oct-12 14:29N 51°57' E 001°19'0 0.0
2017-Oct-12 13:59N 51°57' E 001°19'0 0.0
2017-Oct-12 13:29N 51°57' E 001°19'0 0.0
2017-Oct-12 12:59N 51°57' E 001°19'0 0.0
2017-Oct-12 12:29N 51°57' E 001°19'0 0.0
2017-Oct-12 11:59N 51°57' E 001°19'0 0.0
2017-Oct-12 11:29N 51°57' E 001°19'0 0.0
2017-Oct-12 10:59N 51°57' E 001°19'0 0.0
2017-Oct-12 10:29N 51°57' E 001°19'0 0.0
2017-Oct-12 09:59N 51°57' E 001°19'0 0.0
2017-Oct-12 09:29N 51°57' E 001°19'0 0.0
2017-Oct-12 08:59N 51°57' E 001°19'0 0.0
2017-Oct-12 08:29N 51°57' E 001°19'0 0.0
2017-Oct-12 07:59N 51°57' E 001°19'0 0.0
2017-Oct-12 07:29N 51°57' E 001°19'0 0.0
2017-Oct-12 06:59N 51°57' E 001°19'0 0.0
2017-Oct-12 06:29N 51°57' E 001°19'0 0.0
2017-Oct-12 05:59N 51°57' E 001°19'0 0.0
2017-Oct-12 05:29N 51°57' E 001°19'0 0.0
2017-Oct-12 04:59N 51°57' E 001°19'0 0.0
2017-Oct-12 04:29N 51°57' E 001°19'0 0.0
2017-Oct-12 03:59N 51°57' E 001°19'0 0.0
2017-Oct-12 03:29N 51°57' E 001°19'0 0.0
2017-Oct-12 02:59N 51°57' E 001°19'0 0.0
2017-Oct-12 02:29N 51°57' E 001°19'0 0.0
2017-Oct-12 01:59N 51°57' E 001°19'0 0.0
2017-Oct-12 01:29N 51°57' E 001°19'0 0.0
2017-Oct-12 00:59N 51°57' E 001°19'0 0.0
2017-Oct-12 00:29N 51°57' E 001°19'0 0.0
2017-Oct-11 23:59N 51°57' E 001°19'0 0.0
2017-Oct-11 23:29N 51°57' E 001°19'0 0.0
2017-Oct-11 22:59N 51°57' E 001°19'0 0.0
2017-Oct-11 22:29N 51°57' E 001°19'0 0.0
2017-Oct-11 21:59N 51°57' E 001°19'0 0.0
2017-Oct-11 21:29N 51°57' E 001°19'0 0.0
2017-Oct-11 20:59N 51°57' E 001°19'0 0.0
2017-Oct-11 20:29N 51°57' E 001°19'0 0.0
2017-Oct-11 19:59N 51°57' E 001°19'0 0.0
2017-Oct-11 19:28N 51°57' E 001°19'0 0.0
2017-Oct-11 18:58N 51°57' E 001°19'0 0.0
2017-Oct-11 18:28N 51°57' E 001°19'0 0.0
2017-Oct-11 17:58N 51°57' E 001°19'0 0.0
2017-Oct-11 17:28N 51°57' E 001°19'0 0.0
2017-Oct-11 16:58N 51°57' E 001°19'103 5.3
2017-Oct-10 21:33N 52°49' E 003°45'1211.9
2017-Oct-10 20:34N 52°58' E 003°58'111.5
2017-Oct-10 20:30N 52°58' E 003°59'611.9
2017-Oct-10 20:00N 53°02' E 004°07'611.9
2017-Oct-10 19:30N 53°06' E 004°14'5 9.9
2017-Oct-10 19:00N 53°09' E 004°21'4 8.8
2017-Oct-10 18:30N 53°12' E 004°26'5 9.0
2017-Oct-10 17:59N 53°16' E 004°29'5 9.9
2017-Oct-10 17:29N 53°21' E 004°32'510.7
2017-Oct-10 17:01N 53°26' E 004°34'510.8
2017-Oct-10 16:31N 53°29' E 004°41'611.7
2017-Oct-10 16:00N 53°32' E 004°50'611.7
2017-Oct-10 15:31N 53°34' E 004°59'611.6
2017-Oct-10 15:01N 53°36' E 005°08'1111.3
2017-Oct-10 14:01N 53°40' E 005°26'611.1
2017-Oct-10 13:29N 53°41' E 005°36'65 9.2
2017-Oct-10 06:30N 53°58' E 007°21'1012.2
2017-Oct-10 05:43N 54°00' E 007°37'313.0
2017-Oct-10 05:30N 53°58' E 007°40'713.3
2017-Oct-10 05:00N 53°53' E 007°48'714.4
2017-Oct-10 04:30N 53°51' E 007°59'714.1
2017-Oct-10 04:00N 53°47' E 008°09'713.8
2017-Oct-10 03:31N 53°43' E 008°18'612.4
2017-Oct-10 03:01N 53°38' E 008°26'4 7.9
2017-Oct-10 02:31N 53°36' E 008°31'0 0.4
2017-Oct-10 02:00N 53°36' E 008°31'0 0.0
2017-Oct-10 01:30N 53°36' E 008°31'0 0.0
2017-Oct-10 01:00N 53°36' E 008°31'0 0.0
2017-Oct-10 00:30N 53°36' E 008°31'0 0.0
2017-Oct-10 00:00N 53°36' E 008°31'0 0.0
2017-Oct-09 23:30N 53°36' E 008°31'0 0.0
2017-Oct-09 23:00N 53°36' E 008°31'0 0.0
2017-Oct-09 22:30N 53°36' E 008°31'0 0.0
2017-Oct-09 22:00N 53°36' E 008°31'0 0.0
2017-Oct-09 21:30N 53°36' E 008°31'0 0.0
2017-Oct-09 21:00N 53°36' E 008°31'0 0.0
2017-Oct-09 20:30N 53°36' E 008°31'0 0.0
2017-Oct-09 20:00N 53°36' E 008°31'0 0.0
2017-Oct-09 19:30N 53°36' E 008°31'0 0.0
2017-Oct-09 19:00N 53°36' E 008°31'0 0.0
2017-Oct-09 18:30N 53°36' E 008°31'0 0.0
2017-Oct-09 18:00N 53°36' E 008°31'0 0.0
2017-Oct-09 17:30N 53°36' E 008°31'0 0.0
2017-Oct-09 17:00N 53°36' E 008°31'0 0.0
2017-Oct-09 16:30N 53°36' E 008°31'0 0.0
2017-Oct-09 16:00N 53°36' E 008°31'0 0.0
2017-Oct-09 15:30N 53°36' E 008°31'0 0.0
2017-Oct-09 15:00N 53°36' E 008°31'0 0.0
2017-Oct-09 14:30N 53°36' E 008°31'0 0.0
2017-Oct-09 13:57N 53°36' E 008°31'0 0.0
2017-Oct-09 13:30N 53°36' E 008°31'0 0.0
2017-Oct-09 13:00N 53°36' E 008°31'0 0.0
2017-Oct-09 12:30N 53°36' E 008°31'0 0.0
2017-Oct-09 12:00N 53°36' E 008°31'0 0.0
2017-Oct-09 11:30N 53°36' E 008°31'0 0.0
2017-Oct-09 11:00N 53°36' E 008°31'0 0.0
2017-Oct-09 10:30N 53°36' E 008°31'0 0.0
2017-Oct-09 10:00N 53°36' E 008°31'0 0.0
2017-Oct-09 09:27N 53°36' E 008°31'0 0.0
2017-Oct-09 09:00N 53°36' E 008°31'0 0.0
2017-Oct-09 08:30N 53°36' E 008°31'0 0.0
2017-Oct-09 08:00N 53°36' E 008°31'0 0.0
2017-Oct-09 07:30N 53°36' E 008°31'0 0.0
2017-Oct-09 07:00N 53°36' E 008°31'0 0.0
2017-Oct-09 06:30N 53°36' E 008°31'0 0.0
2017-Oct-09 06:00N 53°36' E 008°31'0 0.0
2017-Oct-09 05:30N 53°36' E 008°31'0 0.0
2017-Oct-09 05:00N 53°36' E 008°31'0 0.0
2017-Oct-09 04:30N 53°36' E 008°31'0 0.0
2017-Oct-09 04:00N 53°36' E 008°31'0 0.0
2017-Oct-09 03:30N 53°36' E 008°31'0 0.0
2017-Oct-09 03:00N 53°36' E 008°31'0 0.0
2017-Oct-09 02:30N 53°36' E 008°31'0 0.0
2017-Oct-09 02:00N 53°36' E 008°31'0 0.0
2017-Oct-09 01:30N 53°36' E 008°31'0 0.0
2017-Oct-09 01:00N 53°36' E 008°31'0 0.0
2017-Oct-09 00:30N 53°36' E 008°31'0 0.0
2017-Oct-09 00:00N 53°36' E 008°31'0 0.0
2017-Oct-08 23:30N 53°36' E 008°31'0 0.0
2017-Oct-08 23:00N 53°36' E 008°31'0 0.0
2017-Oct-08 22:30N 53°36' E 008°31'0 0.0
2017-Oct-08 22:00N 53°36' E 008°31'0 0.0
2017-Oct-08 21:30N 53°36' E 008°31'0 0.0
2017-Oct-08 21:00N 53°36' E 008°31'0 0.0
2017-Oct-08 20:30N 53°36' E 008°31'0 0.0
2017-Oct-08 20:00N 53°36' E 008°31'0 0.0
2017-Oct-08 19:30N 53°36' E 008°31'0 0.0
2017-Oct-08 19:00N 53°36' E 008°31'0 0.0
2017-Oct-08 18:30N 53°36' E 008°31'0 0.0
2017-Oct-08 18:00N 53°36' E 008°31'0 0.0
2017-Oct-08 17:30N 53°36' E 008°31'0 0.0
2017-Oct-08 17:00N 53°36' E 008°31'0 0.0
2017-Oct-08 16:30N 53°36' E 008°31'0 0.0
2017-Oct-08 16:00N 53°36' E 008°31'0 0.0
2017-Oct-08 15:30N 53°36' E 008°31'0 0.0
2017-Oct-08 15:00N 53°36' E 008°31'0 0.0
2017-Oct-08 14:30N 53°36' E 008°31'0 0.0
2017-Oct-08 14:00N 53°36' E 008°31'0 0.0
2017-Oct-08 13:30N 53°36' E 008°31'0 0.0
2017-Oct-08 13:00N 53°36' E 008°31'0 0.1
2017-Oct-08 12:30N 53°36' E 008°31'1 2.2
2017-Oct-08 12:00N 53°37' E 008°30'713.2
2017-Oct-08 11:30N 53°41' E 008°21'917.4
2017-Oct-08 11:00N 53°46' E 008°10'816.4
2017-Oct-08 10:30N 53°51' E 007°59'611.9
2017-Oct-08 10:00N 53°52' E 007°49'3 6.8
2017-Oct-08 09:30N 53°54' E 007°44'4 7.7
2017-Oct-08 09:00N 53°57' E 007°39'611.0
2017-Oct-08 08:30N 54°01' E 007°33'4 7.8
2017-Oct-08 08:00N 54°04' E 007°30'4 3.2
2017-Oct-08 06:50N 54°08' E 007°27'1 1.7
2017-Oct-08 06:25N 54°08' E 007°26'  

Dump ship's entire track history